Time;durP1;ratioP1;P1;durP2;ratioP2;P2;SDS_P1;SDS_P2;PMS_P1;PMS_P2;Temp;Humidity;BMP_temperature;BMP_pressure;BME280_temperature;BME280_humidity;BME280_pressure;Samples;Min_cycle;Max_cycle;Signal;HPM_P1;HPM_P2
2023/11/17 00:01:58;;;;;;;2.38;1.17;;;;;;;4.71;100.00;91945.59;4957944;29;20031;-80
2023/11/17 00:04:23;;;;;;;3.05;1.10;;;;;;;4.71;100.00;91927.44;4958697;29;20047;-80
2023/11/17 00:06:49;;;;;;;2.90;1.30;;;;;;;4.65;100.00;91924.06;4958955;28;20055;-80
2023/11/17 00:09:15;;;;;;;2.72;1.30;;;;;;;4.51;100.00;91912.69;4941673;29;20046;-80
2023/11/17 00:11:42;;;;;;;3.13;1.30;;;;;;;4.50;100.00;91901.56;4959023;29;20467;-79
2023/11/17 00:14:08;;;;;;;1.67;1.10;;;;;;;4.43;100.00;91931.38;4959886;29;20074;-80
2023/11/17 00:16:35;;;;;;;3.50;1.15;;;;;;;4.37;100.00;91928.00;4952913;28;20515;-78
2023/11/17 00:19:02;;;;;;;3.50;1.40;;;;;;;4.32;100.00;91941.75;4953965;29;20031;-80
2023/11/17 00:21:28;;;;;;;3.38;1.33;;;;;;;4.28;100.00;91926.97;4957823;29;20066;-79
2023/11/17 00:23:54;;;;;;;2.35;1.20;;;;;;;4.28;100.00;91930.34;4958790;29;20028;-81
2023/11/17 00:26:20;;;;;;;2.25;1.20;;;;;;;4.28;100.00;91898.47;4957189;29;20035;-79
2023/11/17 00:28:48;;;;;;;2.72;1.17;;;;;;;4.33;100.00;91901.06;4953856;28;20032;-79
2023/11/17 00:31:14;;;;;;;1.58;1.20;;;;;;;4.32;100.00;91918.44;4954346;29;20123;-79
2023/11/17 00:33:43;;;;;;;2.15;1.33;;;;;;;4.27;100.00;91915.81;4942496;29;20416;-79
2023/11/17 00:36:09;;;;;;;1.95;1.15;;;;;;;4.27;100.00;91902.88;4941885;29;20507;-80
2023/11/17 00:38:36;;;;;;;2.85;1.30;;;;;;;4.27;100.00;91902.09;4956099;28;20051;-80
2023/11/17 00:41:03;;;;;;;2.25;1.20;;;;;;;4.27;100.00;91904.69;4950451;28;20046;-80
2023/11/17 00:43:30;;;;;;;1.30;1.00;;;;;;;4.24;100.00;91897.44;4956444;29;20031;-80
2023/11/17 00:46:00;;;;;;;1.95;1.20;;;;;;;4.23;100.00;91891.47;4923246;29;20039;-80
2023/11/17 00:48:30;;;;;;;2.30;1.35;;;;;;;4.19;100.00;91908.59;4959497;28;20074;-80
2023/11/17 00:50:58;;;;;;;2.78;1.30;;;;;;;4.18;100.00;91889.66;4939360;29;20059;-80
2023/11/17 00:53:29;;;;;;;1.73;1.08;;;;;;;4.14;100.00;91867.13;4956640;29;20039;-80
2023/11/17 00:55:59;;;;;;;3.20;1.30;;;;;;;4.14;100.00;91887.84;4911650;29;20047;-80
2023/11/17 00:58:27;;;;;;;2.60;1.30;;;;;;;4.21;100.00;91862.50;4951484;29;20508;-79
2023/11/17 01:14:03;;;;;;;1.85;1.00;;;;;;;4.86;100.00;91866.94;4949644;29;20082;-78
2023/11/17 01:16:30;;;;;;;1.35;1.00;;;;;;;4.87;100.00;91868.53;4956570;29;20047;-78
2023/11/17 01:18:56;;;;;;;1.60;1.00;;;;;;;5.05;100.00;91880.88;4941845;29;20578;-80
2023/11/17 01:21:22;;;;;;;0.60;0.57;;;;;;;5.47;100.00;91887.44;4952593;29;20199;-80
2023/11/17 01:23:47;;;;;;;1.02;0.70;;;;;;;5.73;100.00;91885.44;4946904;29;20039;-79
2023/11/17 01:26:14;;;;;;;0.68;0.60;;;;;;;6.55;86.74;91876.97;4957220;29;20040;-79
2023/11/17 01:28:39;;;;;;;0.70;0.70;;;;;;;7.01;88.67;91878.31;4960131;28;20028;-79
2023/11/17 01:31:05;;;;;;;1.08;0.63;;;;;;;6.99;86.52;91862.19;4957160;28;20054;-80
2023/11/17 01:33:31;;;;;;;0.57;0.57;;;;;;;7.16;78.19;91856.50;4939859;29;20074;-79
2023/11/17 01:35:56;;;;;;;0.52;0.52;;;;;;;7.60;71.79;91837.94;4940581;29;20338;-81
2023/11/17 01:38:22;;;;;;;0.68;0.68;;;;;;;7.97;70.63;91879.88;4940818;29;20035;-81
2023/11/17 01:40:48;;;;;;;0.50;0.50;;;;;;;8.39;67.19;91889.38;4941704;29;20463;-81
2023/11/17 01:43:16;;;;;;;1.45;0.93;;;;;;;8.43;71.59;91877.34;4923339;29;20035;-79
2023/11/17 01:45:44;;;;;;;0.50;0.50;;;;;;;8.28;69.36;91880.94;4955248;29;20444;-81
2023/11/17 01:48:11;;;;;;;0.65;0.65;;;;;;;8.60;63.42;91883.81;4950011;29;20039;-80
2023/11/17 01:50:37;;;;;;;0.70;0.70;;;;;;;8.90;62.30;91875.44;4957232;29;20039;-79
2023/11/17 01:53:03;;;;;;;0.57;0.57;;;;;;;9.11;61.79;91885.50;4940350;29;20035;-79
2023/11/17 01:55:28;;;;;;;0.40;0.40;;;;;;;9.23;60.21;91898.84;4957134;29;20039;-79
2023/11/17 01:57:56;;;;;;;1.08;0.55;;;;;;;9.30;60.47;91888.78;4957504;28;20050;-80
2023/11/17 02:00:22;;;;;;;0.50;0.50;;;;;;;9.10;62.85;91889.19;4940245;29;20041;-80
2023/11/17 02:02:53;;;;;;;0.70;0.70;;;;;;;9.18;61.38;91896.31;4940791;29;20270;-79
2023/11/17 02:05:22;;;;;;;0.60;0.60;;;;;;;9.20;60.94;91896.81;4941325;29;20043;-80
2023/11/17 02:07:53;;;;;;;0.43;0.43;;;;;;;9.48;59.43;91888.94;4941324;29;20502;-79
2023/11/17 02:10:31;;;;;;;0.40;0.40;;;;;;;9.49;59.51;91882.66;4938773;29;20042;-80
2023/11/17 02:13:39;;;;;;;0.90;0.80;;;;;;;9.60;60.12;91886.59;4948993;29;20050;-79
2023/11/17 02:16:11;;;;;;;0.50;0.50;;;;;;;9.66;59.70;91868.94;4934823;29;20047;-79
2023/11/17 02:18:42;;;;;;;0.50;0.45;;;;;;;9.61;60.66;91877.69;4957711;28;20142;-80
2023/11/17 02:21:12;;;;;;;0.83;0.60;;;;;;;9.68;58.76;91874.66;4940808;29;20046;-79
2023/11/17 02:23:38;;;;;;;0.40;0.40;;;;;;;9.79;57.56;91883.81;4940658;29;20281;-79
2023/11/17 02:26:36;;;;;;;0.60;0.60;;;;;;;9.87;56.36;91879.75;4941081;29;20027;-80
2023/11/17 02:29:10;;;;;;;0.50;0.50;;;;;;;9.99;55.88;91903.50;4918219;29;20109;-80
2023/11/17 02:31:39;;;;;;;0.40;0.40;;;;;;;9.99;56.66;91882.59;4960758;29;20106;-80
2023/11/17 02:34:09;;;;;;;0.50;0.50;;;;;;;9.92;57.21;91888.25;4942557;29;20066;-80
2023/11/17 02:36:38;;;;;;;0.50;0.50;;;;;;;9.97;56.93;91890.75;4940123;29;20039;-79
2023/11/17 02:39:14;;;;;;;0.50;0.50;;;;;;;9.88;58.50;91891.75;4937427;29;20488;-80
2023/11/17 02:42:24;;;;;;;0.60;0.60;;;;;;;9.79;58.91;91889.06;4938024;29;20036;-80
2023/11/17 02:44:44;;;;;;;0.47;0.47;;;;;;;9.78;58.45;91872.59;4957834;29;20043;-80
2023/11/17 02:47:19;;;;;;;0.63;0.63;;;;;;;9.95;56.20;91869.34;4948385;29;20032;-80
2023/11/17 02:49:52;;;;;;;0.45;0.40;;;;;;;9.76;57.84;91868.75;4956192;29;20050;-80
2023/11/17 02:52:24;;;;;;;0.47;0.47;;;;;;;9.67;58.12;91880.97;4962454;29;20071;-81
2023/11/17 02:54:51;;;;;;;0.50;0.50;;;;;;;9.59;58.89;91885.84;4927339;29;20032;-80
2023/11/17 02:57:22;;;;;;;0.50;0.50;;;;;;;9.60;58.82;91868.31;4941294;29;20042;-81
2023/11/17 02:59:49;;;;;;;0.47;0.47;;;;;;;9.59;59.07;91859.69;4944522;29;20032;-81
2023/11/17 03:02:15;;;;;;;0.52;0.52;;;;;;;9.64;58.42;91856.19;4944265;29;20038;-80
2023/11/17 03:04:43;;;;;;;0.50;0.50;;;;;;;9.69;57.45;91865.78;4936464;29;20419;-80
2023/11/17 03:07:09;;;;;;;0.50;0.50;;;;;;;9.75;57.92;91860.13;4954719;29;20334;-80
2023/11/17 03:09:35;;;;;;;1.65;0.63;;;;;;;9.68;57.89;91880.69;4943436;29;20042;-81
2023/11/17 03:12:00;;;;;;;0.52;0.52;;;;;;;9.68;56.25;91878.06;4944272;29;20419;-80
2023/11/17 03:14:27;;;;;;;0.70;0.70;;;;;;;9.66;57.62;91882.81;4960725;29;20043;-80
2023/11/17 03:16:54;;;;;;;0.43;0.43;;;;;;;9.64;57.27;91866.66;4960999;29;20061;-81
2023/11/17 03:19:20;;;;;;;0.70;0.70;;;;;;;9.63;57.83;91875.53;4941713;29;20089;-81
2023/11/17 03:21:46;;;;;;;0.65;0.65;;;;;;;9.57;59.68;91897.66;4943557;29;20046;-81
2023/11/17 03:24:17;;;;;;;0.47;0.47;;;;;;;9.51;59.63;91888.34;4959115;29;20090;-80
2023/11/17 03:26:44;;;;;;;0.60;0.60;;;;;;;9.52;60.29;91889.88;4960264;28;20037;-82
2023/11/17 03:29:17;;;;;;;0.40;0.40;;;;;;;9.46;60.59;91891.84;4961266;29;20039;-80
2023/11/17 03:31:49;;;;;;;0.60;0.60;;;;;;;9.38;62.01;91893.28;4944497;29;20043;-80
2023/11/17 03:34:29;;;;;;;0.45;0.45;;;;;;;9.32;62.29;91910.16;4940238;29;20066;-80
2023/11/17 03:37:00;;;;;;;0.45;0.45;;;;;;;9.35;62.59;91914.78;4939897;29;20047;-81
2023/11/17 03:39:28;;;;;;;0.50;0.50;;;;;;;9.35;64.52;91924.47;4942859;29;20035;-79
2023/11/17 03:41:54;;;;;;;0.40;0.40;;;;;;;9.27;66.52;91927.75;4954340;29;20031;-80
2023/11/17 03:44:24;;;;;;;0.40;0.40;;;;;;;9.17;67.89;91920.91;4959456;29;20369;-78
2023/11/17 03:46:54;;;;;;;0.45;0.45;;;;;;;9.27;67.83;91925.16;4942433;28;20050;-80
2023/11/17 03:49:20;;;;;;;0.43;0.43;;;;;;;9.21;69.50;91918.47;4927137;29;20031;-79
2023/11/17 03:51:50;;;;;;;0.50;0.50;;;;;;;9.09;71.04;91922.34;4959938;29;20117;-80
2023/11/17 03:54:16;;;;;;;0.50;0.50;;;;;;;8.99;72.51;91914.72;4958848;28;20036;-80
2023/11/17 03:56:44;;;;;;;0.47;0.47;;;;;;;9.12;71.85;91932.22;4959314;29;20633;-80
2023/11/17 03:59:13;;;;;;;0.60;0.60;;;;;;;8.99;73.74;91940.03;4941333;29;20039;-78
2023/11/17 04:01:40;;;;;;;0.40;0.40;;;;;;;8.94;74.43;91933.06;4951661;29;20043;-81
2023/11/17 04:04:07;;;;;;;1.00;0.50;;;;;;;8.85;74.58;91932.97;4958918;29;20092;-80
2023/11/17 04:06:34;;;;;;;0.52;0.52;;;;;;;8.78;75.54;91939.59;4942799;29;20039;-80
2023/11/17 04:09:21;;;;;;;0.50;0.50;;;;;;;8.79;74.97;91943.78;4959806;29;20027;-80
2023/11/17 04:11:48;;;;;;;0.50;0.50;;;;;;;8.86;72.81;91950.16;4945252;29;20066;-80
2023/11/17 04:14:15;;;;;;;0.60;0.60;;;;;;;8.73;72.42;91936.03;4918945;29;20070;-79
2023/11/17 04:16:41;;;;;;;0.60;0.60;;;;;;;8.68;72.71;91951.00;4955984;29;20047;-80
2023/11/17 04:19:08;;;;;;;0.60;0.60;;;;;;;8.68;71.92;91956.22;4942193;29;20396;-82
2023/11/17 04:21:35;;;;;;;0.50;0.50;;;;;;;8.53;72.17;91965.88;4941429;29;20126;-80
2023/11/17 04:24:01;;;;;;;0.60;0.60;;;;;;;8.50;70.66;91971.63;4941836;29;20095;-80
2023/11/17 04:26:32;;;;;;;0.70;0.70;;;;;;;8.59;71.08;91960.56;4957578;28;20494;-79
2023/11/17 04:28:58;;;;;;;0.63;0.60;;;;;;;8.55;70.94;91963.72;4959420;29;20043;-80
2023/11/17 04:31:24;;;;;;;0.40;0.40;;;;;;;8.57;70.70;91967.88;4958970;29;20027;-81
2023/11/17 04:33:49;;;;;;;0.50;0.50;;;;;;;8.57;70.65;91970.50;4942000;29;20126;-80
2023/11/17 04:36:16;;;;;;;0.55;0.55;;;;;;;8.57;69.83;91970.50;4960485;29;20046;-81
2023/11/17 04:38:41;;;;;;;0.47;0.47;;;;;;;8.51;69.36;91967.97;4942387;29;20039;-81
2023/11/17 04:41:07;;;;;;;0.77;0.50;;;;;;;8.48;69.12;91968.53;4940558;29;20053;-81
2023/11/17 04:43:33;;;;;;;0.65;0.52;;;;;;;8.52;69.10;91963.53;4941731;29;20047;-81
2023/11/17 04:45:59;;;;;;;0.50;0.50;;;;;;;8.45;68.74;91973.56;4951021;29;20479;-82
2023/11/17 04:48:25;;;;;;;0.50;0.50;;;;;;;8.42;68.35;91961.06;4958291;29;20035;-80
2023/11/17 04:50:52;;;;;;;0.47;0.47;;;;;;;8.48;67.08;91968.53;4958260;28;20057;-81
2023/11/17 04:53:17;;;;;;;0.60;0.60;;;;;;;8.45;65.79;91968.34;4941322;29;20482;-81
2023/11/17 04:55:44;;;;;;;0.52;0.50;;;;;;;8.43;65.45;91971.22;4942631;29;20043;-80
2023/11/17 04:58:13;;;;;;;0.60;0.60;;;;;;;8.55;63.77;91983.81;4958185;28;20070;-81
2023/11/17 05:00:40;;;;;;;0.47;0.47;;;;;;;8.41;62.88;91975.19;4934320;29;20039;-80
2023/11/17 05:03:06;;;;;;;0.50;0.50;;;;;;;8.33;61.85;91966.91;4958134;29;20079;-80
2023/11/17 05:05:33;;;;;;;0.93;0.60;;;;;;;8.43;62.23;91958.19;4958155;28;20023;-79
2023/11/17 05:07:59;;;;;;;0.60;0.60;;;;;;;8.51;59.81;91967.97;4940539;29;20079;-80
2023/11/17 05:10:26;;;;;;;0.50;0.50;;;;;;;8.42;59.31;91961.88;4941900;29;20045;-80
2023/11/17 05:12:53;;;;;;;0.57;0.57;;;;;;;8.50;58.06;91961.19;4958233;29;20043;-80
2023/11/17 05:15:20;;;;;;;0.40;0.40;;;;;;;8.65;57.42;91972.47;4952133;29;20070;-81
2023/11/17 05:17:50;;;;;;;0.40;0.40;;;;;;;8.62;55.08;91983.44;4941873;29;20215;-80
2023/11/17 05:20:22;;;;;;;0.50;0.50;;;;;;;8.47;55.83;91972.22;4958191;29;20035;-80
2023/11/17 05:22:52;;;;;;;0.50;0.50;;;;;;;8.58;54.33;91988.47;4941541;29;20439;-80
2023/11/17 05:25:18;;;;;;;0.40;0.40;;;;;;;8.57;55.74;91991.38;4959303;29;20049;-80
2023/11/17 05:27:48;;;;;;;0.57;0.50;;;;;;;8.62;53.40;91988.66;4957183;28;20118;-79
2023/11/17 05:30:14;;;;;;;0.50;0.50;;;;;;;8.65;51.61;92003.78;4939087;29;20101;-81
2023/11/17 05:32:40;;;;;;;0.50;0.50;;;;;;;8.65;51.55;92001.16;4940033;29;20036;-81
2023/11/17 05:35:07;;;;;;;0.50;0.50;;;;;;;8.67;50.78;92009.47;4955470;28;20257;-81
2023/11/17 05:37:36;;;;;;;0.52;0.52;;;;;;;8.71;51.25;92002.63;4950813;29;20044;-79
2023/11/17 05:40:06;;;;;;;0.63;0.52;;;;;;;8.63;50.89;92008.50;4957302;29;20067;-81
2023/11/17 05:42:32;;;;;;;0.63;0.63;;;;;;;8.57;51.17;92007.03;4963433;28;20027;-79
2023/11/17 05:44:58;;;;;;;0.38;0.38;;;;;;;8.48;51.54;92015.47;4937454;29;20114;-80
2023/11/17 05:47:24;;;;;;;0.43;0.43;;;;;;;8.48;50.44;92025.91;4955188;28;20523;-80
2023/11/17 05:49:49;;;;;;;0.50;0.50;;;;;;;8.50;50.55;92025.66;4953633;28;20038;-79
2023/11/17 05:52:16;;;;;;;0.60;0.60;;;;;;;8.57;49.06;92012.25;4952363;29;20122;-79
2023/11/17 05:54:47;;;;;;;0.60;0.60;;;;;;;8.44;47.47;92019.72;4952485;29;20086;-79
2023/11/17 05:57:14;;;;;;;0.73;0.52;;;;;;;8.49;46.86;92022.25;4950882;29;20038;-79
2023/11/17 05:59:42;;;;;;;0.60;0.60;;;;;;;8.58;49.10;92021.59;4936783;29;20031;-81
2023/11/17 06:02:08;;;;;;;0.50;0.50;;;;;;;8.53;48.88;92030.28;4951238;28;20077;-80
2023/11/17 06:04:33;;;;;;;0.55;0.55;;;;;;;8.40;48.31;92050.06;4943687;28;20452;-78
2023/11/17 06:07:00;;;;;;;0.50;0.50;;;;;;;8.35;46.12;92039.63;4944544;29;20045;-77
2023/11/17 06:09:27;;;;;;;0.57;0.57;;;;;;;8.41;45.89;92054.19;4947462;29;20062;-79
2023/11/17 06:11:56;;;;;;;0.70;0.70;;;;;;;8.45;45.24;92068.22;4931791;29;20569;-79
2023/11/17 06:14:30;;;;;;;0.50;0.50;;;;;;;8.34;45.30;92064.19;4934221;29;20032;-79
2023/11/17 06:16:57;;;;;;;0.50;0.50;;;;;;;8.39;46.56;92079.75;4927200;29;20043;-79
2023/11/17 06:19:23;;;;;;;0.50;0.50;;;;;;;8.39;47.79;92082.38;4932884;29;20039;-79
2023/11/17 06:21:50;;;;;;;0.60;0.60;;;;;;;8.25;47.59;92084.91;4932586;29;20381;-78
2023/11/17 06:24:16;;;;;;;0.63;0.60;;;;;;;8.36;49.22;92085.53;4934087;29;20403;-78
2023/11/17 06:26:48;;;;;;;0.40;0.40;;;;;;;8.34;46.51;92067.56;4933343;29;20138;-78
2023/11/17 06:29:22;;;;;;;0.60;0.60;;;;;;;8.26;47.66;92078.66;4932384;29;20532;-78
2023/11/17 06:31:49;;;;;;;0.50;0.50;;;;;;;8.24;47.45;92087.78;4933662;29;20043;-78
2023/11/17 06:34:15;;;;;;;0.60;0.60;;;;;;;8.28;47.17;92084.31;4932200;29;20234;-78
2023/11/17 06:36:41;;;;;;;0.65;0.65;;;;;;;8.35;46.67;92089.19;4932747;29;20060;-79
2023/11/17 06:39:18;;;;;;;0.60;0.60;;;;;;;8.31;47.63;92104.66;4938637;29;20043;-79
2023/11/17 06:41:49;;;;;;;0.45;0.45;;;;;;;8.34;47.08;92103.31;4919475;29;20443;-78
2023/11/17 06:44:22;;;;;;;0.60;0.60;;;;;;;8.30;48.12;92110.13;4920731;29;20052;-80
2023/11/17 06:46:49;;;;;;;0.70;0.70;;;;;;;8.66;48.56;92107.84;4918312;29;20047;-81
2023/11/17 06:49:19;;;;;;;0.65;0.65;;;;;;;9.69;46.57;92096.53;4918283;29;20032;-81
2023/11/17 06:51:48;;;;;;;0.60;0.60;;;;;;;10.72;44.82;92115.44;4920205;29;20055;-80
2023/11/17 06:54:15;;;;;;;0.63;0.63;;;;;;;11.58;41.79;92122.34;4918645;29;20551;-81
2023/11/17 06:56:47;;;;;;;0.60;0.60;;;;;;;12.31;38.99;92119.41;4920262;29;20047;-80
2023/11/17 06:59:20;;;;;;;0.65;0.65;;;;;;;12.97;38.42;92128.03;4936321;29;20404;-80
2023/11/17 07:01:48;;;;;;;0.50;0.50;;;;;;;13.43;36.92;92136.38;4938134;29;20393;-80
2023/11/17 07:04:14;;;;;;;1.40;0.90;;;;;;;14.04;35.79;92133.59;4939311;29;20027;-80
2023/11/17 07:06:40;;;;;;;0.50;0.50;;;;;;;14.50;35.01;92142.50;4938253;29;20044;-80
2023/11/17 07:11:52;;;;;;;0.50;0.50;;;;;;;15.28;32.24;92143.88;4921321;29;20048;-81
2023/11/17 07:14:21;;;;;;;0.50;0.50;;;;;;;15.95;32.04;92157.88;4937206;29;20031;-81
2023/11/17 07:16:48;;;;;;;0.75;0.70;;;;;;;16.70;31.43;92141.75;4938339;29;20046;-81
2023/11/17 07:19:18;;;;;;;0.40;0.40;;;;;;;17.15;30.13;92153.28;4937345;29;20082;-80
2023/11/17 07:21:49;;;;;;;0.40;0.40;;;;;;;17.61;29.97;92167.03;4946127;29;20086;-82
2023/11/17 07:24:16;;;;;;;0.45;0.45;;;;;;;18.07;28.26;92183.38;4946702;28;20071;-81
2023/11/17 07:26:48;;;;;;;0.50;0.50;;;;;;;18.30;27.40;92180.94;4943457;29;20039;-81
2023/11/17 07:29:15;;;;;;;0.30;0.30;;;;;;;18.71;26.40;92189.47;4938431;29;20043;-82
2023/11/17 07:31:48;;;;;;;0.30;0.30;;;;;;;19.20;26.11;92178.47;4944290;29;20034;-82
2023/11/17 07:34:18;;;;;;;0.45;0.32;;;;;;;19.79;25.70;92189.16;4943962;29;20508;-81
2023/11/17 07:36:44;;;;;;;0.30;0.30;;;;;;;19.87;24.78;92182.88;4944014;29;20045;-82
2023/11/17 07:39:13;;;;;;;0.20;0.20;;;;;;;20.52;24.18;92201.50;4943284;29;20038;-82
2023/11/17 07:41:40;;;;;;;0.35;0.35;;;;;;;20.39;24.88;92202.78;4944526;29;20040;-82
2023/11/17 07:44:08;;;;;;;0.43;0.43;;;;;;;21.05;23.95;92211.47;4944617;29;20031;-81
2023/11/17 07:46:37;;;;;;;0.40;0.40;;;;;;;21.64;23.05;92222.59;4942662;29;20042;-82
2023/11/17 07:49:06;;;;;;;0.32;0.32;;;;;;;21.84;21.29;92212.53;4927415;29;20071;-82
2023/11/17 07:51:33;;;;;;;0.45;0.45;;;;;;;22.36;21.88;92205.53;4953366;29;20027;-82
2023/11/17 07:53:59;;;;;;;0.55;0.55;;;;;;;22.74;21.93;92213.50;4943430;29;20036;-82
2023/11/17 07:56:27;;;;;;;0.50;0.50;;;;;;;22.86;21.12;92224.66;4944024;29;20042;-82
2023/11/17 07:58:54;;;;;;;0.50;0.50;;;;;;;23.15;21.12;92227.59;4938249;29;20531;-82
2023/11/17 08:01:20;;;;;;;0.52;0.52;;;;;;;23.36;21.00;92232.28;4907085;29;20043;-82
2023/11/17 08:03:45;;;;;;;0.50;0.50;;;;;;;24.08;21.99;92232.69;4923974;29;20123;-82
2023/11/17 08:06:12;;;;;;;0.50;0.50;;;;;;;24.68;19.59;92232.13;4940238;29;20090;-82
2023/11/17 08:08:40;;;;;;;0.60;0.60;;;;;;;23.92;20.54;92249.03;4925270;29;20599;-82
2023/11/17 08:11:08;;;;;;;0.47;0.47;;;;;;;24.87;20.17;92243.59;4927464;29;20051;-82
2023/11/17 08:13:33;;;;;;;0.60;0.60;;;;;;;23.77;20.48;92236.75;4927374;29;20443;-82
2023/11/17 08:16:00;;;;;;;0.57;0.57;;;;;;;24.55;19.31;92236.28;4912236;29;20036;-82
2023/11/17 08:18:26;;;;;;;0.50;0.50;;;;;;;24.69;19.34;92244.34;4927403;29;20052;-82
2023/11/17 08:20:52;;;;;;;0.50;0.50;;;;;;;24.95;20.10;92253.19;4927796;29;20318;-82
2023/11/17 08:23:19;;;;;;;0.57;0.57;;;;;;;24.70;20.87;92243.22;4911310;29;20051;-82
2023/11/17 08:25:45;;;;;;;0.40;0.40;;;;;;;25.58;20.16;92250.09;4944714;29;20051;-82
2023/11/17 08:28:11;;;;;;;0.60;0.60;;;;;;;24.92;19.46;92262.72;4944103;29;20032;-83
2023/11/17 08:30:37;;;;;;;0.50;0.50;;;;;;;24.81;19.25;92255.81;4911249;29;20103;-82
2023/11/17 08:33:04;;;;;;;0.43;0.40;;;;;;;24.85;20.10;92260.03;4943161;29;20087;-83
2023/11/17 08:35:30;;;;;;;0.40;0.40;;;;;;;24.03;20.29;92257.13;4909549;29;20099;-82
2023/11/17 08:37:56;;;;;;;0.38;0.38;;;;;;;22.89;20.58;92265.84;4943206;29;20035;-82
2023/11/17 08:40:23;;;;;;;0.30;0.30;;;;;;;22.06;21.37;92282.84;4943590;29;20377;-82
2023/11/17 08:42:49;;;;;;;0.30;0.30;;;;;;;21.21;22.91;92277.88;4941922;29;20043;-81
2023/11/17 08:45:15;;;;;;;0.20;0.20;;;;;;;20.90;23.64;92270.94;4925706;29;20427;-81
2023/11/17 08:47:46;;;;;;;2.13;0.35;;;;;;;20.46;22.88;92274.69;4943011;29;20080;-82
2023/11/17 08:50:13;;;;;;;0.30;0.30;;;;;;;20.51;23.35;92274.41;4941586;29;20051;-82
2023/11/17 08:52:44;;;;;;;0.13;0.13;;;;;;;19.86;24.05;92268.97;4924274;29;20040;-80
2023/11/17 08:55:13;;;;;;;0.20;0.20;;;;;;;19.51;23.94;92273.16;4940687;29;20095;-82
2023/11/17 08:57:41;;;;;;;0.30;0.30;;;;;;;19.45;23.82;92279.09;4940435;29;20103;-81
2023/11/17 09:00:12;;;;;;;0.20;0.20;;;;;;;19.25;23.55;92280.91;4941371;29;20027;-81
2023/11/17 09:02:44;;;;;;;0.30;0.30;;;;;;;19.03;23.14;92284.97;4939602;29;20521;-81
2023/11/17 09:05:11;;;;;;;;;;;;;;;18.61;23.70;92307.41;4941039;29;20107;-81
2023/11/17 09:07:40;;;;;;;0.30;0.20;;;;;;;18.46;24.47;92293.03;4939763;29;20403;-80
2023/11/17 09:10:08;;;;;;;0.28;0.28;;;;;;;18.70;25.56;92301.94;4938856;29;20491;-80
2023/11/17 09:12:36;;;;;;;0.40;0.40;;;;;;;18.38;25.05;92299.25;4919005;29;20374;-81
2023/11/17 09:15:08;;;;;;;0.30;0.30;;;;;;;18.22;25.59;92299.22;4920128;29;20461;-80
2023/11/17 09:17:34;;;;;;;0.30;0.30;;;;;;;18.61;25.77;92298.69;4919943;29;20404;-81
2023/11/17 09:20:08;;;;;;;0.30;0.30;;;;;;;18.24;24.86;92314.78;4908305;29;20048;-80
2023/11/17 09:22:35;;;;;;;0.30;0.30;;;;;;;18.16;25.62;92318.34;4918345;29;20042;-81
2023/11/17 09:25:03;;;;;;;0.20;0.20;;;;;;;18.26;25.85;92323.13;4926592;29;20105;-84
2023/11/17 09:27:29;;;;;;;0.30;0.30;;;;;;;18.14;25.11;92323.19;4940867;29;20040;-85
2023/11/17 09:29:56;;;;;;;0.30;0.30;;;;;;;17.71;25.67;92321.94;4941162;29;20542;-84
2023/11/17 09:32:21;;;;;;;0.22;0.22;;;;;;;17.28;25.79;92324.84;4941872;29;20050;-83
2023/11/17 09:34:49;;;;;;;0.25;0.25;;;;;;;17.18;25.79;92330.59;4940838;29;20535;-83
2023/11/17 09:37:16;;;;;;;0.25;0.25;;;;;;;17.18;26.27;92322.66;4942931;29;20062;-82
2023/11/17 09:39:42;;;;;;;0.30;0.30;;;;;;;17.10;26.45;92330.69;4936999;29;20043;-82
2023/11/17 09:42:08;;;;;;;0.25;0.25;;;;;;;17.14;26.20;92328.94;4946545;29;20115;-81
2023/11/17 09:44:35;;;;;;;0.30;0.30;;;;;;;16.79;26.52;92324.00;4954153;28;20562;-82
2023/11/17 09:47:31;;;;;;;0.40;0.40;;;;;;;16.57;26.92;92322.53;4937698;29;20044;-82
2023/11/17 09:49:59;;;;;;;0.40;0.40;;;;;;;16.29;28.02;92322.34;4908618;29;20075;-80
2023/11/17 09:52:25;;;;;;;0.35;0.35;;;;;;;16.50;28.24;92327.56;4933848;29;20039;-83
2023/11/17 09:54:52;;;;;;;0.40;0.40;;;;;;;16.35;28.33;92332.38;4940763;29;20067;-84
2023/11/17 09:57:19;;;;;;;0.22;0.22;;;;;;;16.52;26.94;92333.31;4932383;29;20063;-84
2023/11/17 09:59:46;;;;;;;0.50;0.50;;;;;;;16.35;27.69;92335.03;4933201;29;20035;-83
2023/11/17 10:02:15;;;;;;;0.22;0.22;;;;;;;16.12;27.08;92331.97;4939001;29;20047;-83
2023/11/17 10:04:41;;;;;;;0.38;0.38;;;;;;;15.83;27.03;92327.53;4933986;29;20025;-83
2023/11/17 10:07:09;;;;;;;0.38;0.38;;;;;;;15.45;27.42;92336.28;4939721;29;20571;-83
2023/11/17 10:09:38;;;;;;;0.40;0.40;;;;;;;15.55;27.51;92328.00;4940193;29;20050;-83
2023/11/17 10:12:05;;;;;;;0.25;0.25;;;;;;;15.65;27.74;92328.69;4946493;29;20054;-83
2023/11/17 10:14:33;;;;;;;0.40;0.40;;;;;;;15.70;28.03;92324.03;4959474;29;20506;-84
2023/11/17 10:17:03;;;;;;;0.60;0.60;;;;;;;15.78;28.91;92335.63;4957935;28;20089;-84
2023/11/17 10:19:29;;;;;;;0.30;0.30;;;;;;;15.94;27.82;92333.19;4943037;29;20035;-82
2023/11/17 10:21:55;;;;;;;0.43;0.43;;;;;;;16.14;28.48;92339.56;4959597;29;20525;-83
2023/11/17 10:24:22;;;;;;;0.40;0.40;;;;;;;15.79;27.09;92326.63;4959908;28;20027;-83
2023/11/17 10:26:47;;;;;;;0.43;0.40;;;;;;;15.51;28.35;92331.59;4959876;28;20486;-81
2023/11/17 10:29:14;;;;;;;1.17;0.50;;;;;;;15.35;27.80;92332.13;4961206;29;20041;-82
2023/11/17 10:31:46;;;;;;;0.32;0.32;;;;;;;15.44;27.91;92324.19;4955775;29;20035;-83
2023/11/17 10:34:16;;;;;;;0.50;0.50;;;;;;;15.45;28.57;92317.81;4961418;29;20062;-82
2023/11/17 10:36:58;;;;;;;0.50;0.50;;;;;;;15.51;28.12;92331.59;4963636;28;20517;-82
2023/11/17 10:39:27;;;;;;;0.50;0.50;;;;;;;15.66;27.59;92338.94;4945737;29;20354;-83
2023/11/17 10:41:53;;;;;;;0.45;0.45;;;;;;;15.50;27.11;92333.47;4956941;28;20032;-85
2023/11/17 10:44:31;;;;;;;0.40;0.40;;;;;;;15.48;27.04;92322.47;4960027;29;20317;-84
2023/11/17 10:47:04;;;;;;;0.40;0.40;;;;;;;15.29;27.87;92314.19;4943138;29;20039;-83
2023/11/17 10:49:32;;;;;;;0.40;0.40;;;;;;;14.98;28.34;92329.22;4961652;29;20063;-83
2023/11/17 10:51:58;;;;;;;0.40;0.40;;;;;;;15.10;29.04;92331.19;4944569;29;20031;-83
2023/11/17 10:54:24;;;;;;;0.30;0.30;;;;;;;15.25;28.52;92329.13;4958649;28;20046;-83
2023/11/17 10:56:53;;;;;;;0.50;0.50;;;;;;;15.32;28.33;92324.09;4960725;29;20031;-82
2023/11/17 10:59:21;;;;;;;0.43;0.43;;;;;;;15.30;28.21;92319.16;4967671;28;20042;-83
2023/11/17 11:01:48;;;;;;;0.30;0.30;;;;;;;15.35;27.77;92310.28;4961906;29;20023;-82
2023/11/17 11:04:17;;;;;;;0.40;0.40;;;;;;;15.47;28.18;92330.69;4939236;29;20086;-82
2023/11/17 11:06:43;;;;;;;0.35;0.35;;;;;;;15.57;27.88;92320.53;4944735;28;20038;-81
2023/11/17 11:09:19;;;;;;;0.43;0.43;;;;;;;15.36;26.44;92314.47;4945095;29;20074;-81
2023/11/17 11:11:50;;;;;;;1.13;0.55;;;;;;;15.34;27.13;92320.06;4949019;29;20043;-80
2023/11/17 11:14:17;;;;;;;0.40;0.40;;;;;;;15.53;27.65;92330.16;4964510;29;20091;-80
2023/11/17 11:16:55;;;;;;;0.30;0.30;;;;;;;15.47;26.86;92331.47;4964146;29;20023;-80
2023/11/17 11:19:22;;;;;;;0.43;0.43;;;;;;;15.51;27.36;92335.00;4964501;29;20066;-80
2023/11/17 11:21:51;;;;;;;0.30;0.30;;;;;;;15.67;27.69;92329.94;4965882;29;20035;-80
2023/11/17 11:24:17;;;;;;;0.47;0.47;;;;;;;15.72;27.14;92342.22;4933898;29;20042;-81
2023/11/17 11:26:44;;;;;;;0.40;0.40;;;;;;;15.59;27.22;92333.41;4963206;29;20035;-80
2023/11/17 11:29:13;;;;;;;0.43;0.43;;;;;;;15.35;27.26;92345.31;4942966;29;20289;-79
2023/11/17 11:31:40;;;;;;;0.45;0.45;;;;;;;15.52;27.21;92333.91;4959764;29;20054;-80
2023/11/17 11:34:08;;;;;;;0.30;0.30;;;;;;;15.88;27.46;92345.81;4943026;29;20047;-79
2023/11/17 11:36:34;;;;;;;0.32;0.32;;;;;;;16.20;27.17;92351.47;4961738;29;20407;-78
2023/11/17 11:39:00;;;;;;;0.50;0.50;;;;;;;16.24;27.72;92350.50;4945555;29;20039;-79
2023/11/17 11:41:28;;;;;;;0.40;0.40;;;;;;;16.56;26.60;92350.06;4963476;29;20035;-79
2023/11/17 11:43:57;;;;;;;0.50;0.50;;;;;;;16.54;26.42;92346.97;4945437;29;20027;-79
2023/11/17 11:46:25;;;;;;;0.40;0.40;;;;;;;16.50;26.44;92348.72;4962679;29;20038;-79
2023/11/17 11:48:56;;;;;;;0.38;0.38;;;;;;;16.57;26.43;92355.03;4946274;29;20052;-78
2023/11/17 11:51:26;;;;;;;1.83;0.40;;;;;;;16.75;26.02;92345.06;4963825;29;20035;-79
2023/11/17 11:53:58;;;;;;;0.40;0.40;;;;;;;16.78;25.77;92356.84;4962200;29;20042;-78
2023/11/17 11:56:31;;;;;;;0.50;0.50;;;;;;;16.91;25.63;92357.66;4962233;29;20050;-79
2023/11/17 11:58:58;;;;;;;0.38;0.38;;;;;;;16.99;26.14;92362.06;4946102;29;20283;-79